createdAt,value
2019-05-22T00:00:05.149Z,-76
2019-05-22T00:01:05.013Z,-76
2019-05-22T00:02:05.142Z,-76
2019-05-22T00:03:05.010Z,-75
2019-05-22T00:04:05.163Z,-75
2019-05-22T00:05:05.012Z,-75
2019-05-22T00:06:05.457Z,-75
2019-05-22T00:07:05.017Z,-75
2019-05-22T00:08:05.144Z,-75
2019-05-22T00:09:05.038Z,-75
2019-05-22T00:10:05.148Z,-75
2019-05-22T00:11:05.017Z,-75
2019-05-22T00:12:05.147Z,-75
2019-05-22T00:13:05.023Z,-75
2019-05-22T00:14:05.210Z,-75
2019-05-22T00:15:05.087Z,-75
2019-05-22T00:16:05.155Z,-75
2019-05-22T00:17:05.021Z,-75
2019-05-22T00:18:05.158Z,-75
2019-05-22T00:19:05.047Z,-75
2019-05-22T00:20:05.157Z,-75
2019-05-22T00:21:05.025Z,-75
2019-05-22T00:22:05.165Z,-75
2019-05-22T00:23:05.029Z,-75
2019-05-22T00:24:05.189Z,-74
2019-05-22T00:25:05.031Z,-77
2019-05-22T00:26:05.158Z,-77
2019-05-22T00:27:05.152Z,-77
2019-05-22T00:28:05.177Z,-77
2019-05-22T00:29:05.057Z,-76
2019-05-22T00:30:05.169Z,-76
2019-05-22T00:31:05.035Z,-76
2019-05-22T00:32:05.165Z,-76
2019-05-22T00:33:05.037Z,-76
2019-05-22T00:34:05.197Z,-76
2019-05-22T00:35:05.039Z,-76
2019-05-22T00:36:05.168Z,-76
2019-05-22T00:37:05.040Z,-76
2019-05-22T00:38:05.215Z,-76
2019-05-22T00:39:05.067Z,-76
2019-05-22T00:40:05.175Z,-75
2019-05-22T00:41:05.051Z,-76
2019-05-22T00:42:05.173Z,-76
2019-05-22T00:43:11.099Z,-76
2019-05-22T00:44:05.203Z,-76
2019-05-22T00:45:05.048Z,-76
2019-05-22T00:46:05.418Z,-75
2019-05-22T00:47:05.051Z,-76
2019-05-22T00:48:05.194Z,-75
2019-05-22T00:49:05.075Z,-75
2019-05-22T00:50:05.187Z,-75
2019-05-22T00:51:05.082Z,-75
2019-05-22T00:52:05.254Z,-75
2019-05-22T00:53:05.080Z,-75
2019-05-22T00:54:05.207Z,-75
2019-05-22T00:55:05.056Z,-75
2019-05-22T00:56:05.189Z,-75
2019-05-22T00:57:05.059Z,-75
2019-05-22T00:58:05.198Z,-75
2019-05-22T00:59:05.084Z,-75
2019-05-22T01:00:05.221Z,-75
2019-05-22T01:01:05.063Z,-75
2019-05-22T01:02:05.215Z,-75
2019-05-22T01:03:05.065Z,-75
2019-05-22T01:04:05.216Z,-75
2019-05-22T01:05:05.068Z,-75
2019-05-22T01:06:05.192Z,-75
2019-05-22T01:07:05.071Z,-75
2019-05-22T01:08:05.498Z,-75
2019-05-22T01:09:05.066Z,-75
2019-05-22T01:10:06.325Z,-75
2019-05-22T01:11:05.071Z,-75
2019-05-22T01:12:05.215Z,-75
2019-05-22T01:13:05.071Z,-75
2019-05-22T01:14:05.200Z,-75
2019-05-22T01:15:05.123Z,-75
2019-05-22T01:16:05.212Z,-74
2019-05-22T01:17:05.075Z,-74
2019-05-22T01:18:05.205Z,-75
2019-05-22T01:19:05.081Z,-74
2019-05-22T01:20:05.243Z,-74
2019-05-22T01:21:05.081Z,-75
2019-05-22T01:22:05.215Z,-75
2019-05-22T01:23:05.080Z,-74
2019-05-22T01:24:05.206Z,-75
2019-05-22T01:25:05.109Z,-74
2019-05-22T01:26:05.267Z,-75
2019-05-22T01:27:05.086Z,-75
2019-05-22T01:28:05.216Z,-75
2019-05-22T01:29:05.088Z,-75
2019-05-22T01:30:05.245Z,-74
2019-05-22T01:31:05.087Z,-75
2019-05-22T01:32:05.219Z,-75
2019-05-22T01:33:05.092Z,-74
2019-05-22T01:34:05.233Z,-74
2019-05-22T01:35:05.116Z,-74
2019-05-22T01:36:05.223Z,-74
2019-05-22T01:37:05.095Z,-75
2019-05-22T01:38:05.235Z,-74
2019-05-22T01:39:05.100Z,-75
2019-05-22T01:40:05.273Z,-74
2019-05-22T01:41:05.098Z,-74
2019-05-22T01:42:05.243Z,-74
2019-05-22T01:43:05.102Z,-75
2019-05-22T01:44:05.358Z,-75
2019-05-22T01:45:06.685Z,-75
2019-05-22T01:46:05.232Z,-75
2019-05-22T01:47:05.104Z,-74
2019-05-22T01:48:05.235Z,-74
2019-05-22T01:49:05.104Z,-76
2019-05-22T01:50:05.339Z,-76
2019-05-22T01:51:05.116Z,-76
2019-05-22T01:52:05.241Z,-76
2019-05-22T01:53:05.109Z,-76
2019-05-22T01:54:05.249Z,-75
2019-05-22T01:55:05.111Z,-75
2019-05-22T01:56:05.280Z,-76
2019-05-22T01:57:05.113Z,-75
2019-05-22T01:58:05.308Z,-75
2019-05-22T01:59:05.120Z,-75
2019-05-22T02:00:05.245Z,-75
2019-05-22T02:01:05.140Z,-75
2019-05-22T02:02:05.248Z,-76
2019-05-22T02:03:05.118Z,-76
2019-05-22T02:04:05.267Z,-76
2019-05-22T02:05:05.271Z,-76
2019-05-22T02:06:05.269Z,-76
2019-05-22T02:07:05.119Z,-76
2019-05-22T02:08:05.252Z,-76
2019-05-22T02:09:05.143Z,-76
2019-05-22T02:10:05.254Z,-76
2019-05-22T02:11:05.150Z,-76
2019-05-22T02:12:05.269Z,-76
2019-05-22T02:13:05.129Z,-76
2019-05-22T02:14:05.259Z,-76
2019-05-22T02:15:05.132Z,-76
2019-05-22T02:16:05.287Z,-77
2019-05-22T02:17:05.135Z,-76
2019-05-22T02:18:05.271Z,-76
2019-05-22T02:19:05.139Z,-76
2019-05-22T02:20:05.473Z,-76
2019-05-22T02:21:05.160Z,-76
2019-05-22T02:22:05.262Z,-76
2019-05-22T02:23:05.135Z,-76
2019-05-22T02:24:05.263Z,-74
2019-05-22T02:25:05.138Z,-74
2019-05-22T02:26:05.288Z,-74
2019-05-22T02:27:05.141Z,-74
2019-05-22T02:28:05.282Z,-74
2019-05-22T02:29:05.142Z,-74
2019-05-22T02:30:05.294Z,-74
2019-05-22T02:31:05.175Z,-74
2019-05-22T02:32:05.295Z,-75
2019-05-22T02:33:05.149Z,-75
2019-05-22T02:34:05.272Z,-77
2019-05-22T02:35:05.163Z,-75
2019-05-22T02:36:05.322Z,-75
2019-05-22T02:37:05.160Z,-75
2019-05-22T02:38:05.280Z,-75
2019-05-22T02:39:05.177Z,-75
2019-05-22T02:40:05.281Z,-75
2019-05-22T02:41:05.154Z,-74
2019-05-22T02:42:05.311Z,-74
2019-05-22T02:43:05.157Z,-74
2019-05-22T02:44:05.291Z,-75
2019-05-22T02:45:05.188Z,-74
2019-05-22T02:46:05.298Z,-73
2019-05-22T02:47:17.594Z,-73
2019-05-22T02:48:05.289Z,-74
2019-05-22T02:49:05.162Z,-73
2019-05-22T02:50:05.378Z,-73
2019-05-22T02:51:05.164Z,-73
2019-05-22T02:52:05.317Z,-73
2019-05-22T02:53:05.188Z,-73
2019-05-22T02:54:05.298Z,-73
2019-05-22T02:55:05.166Z,-74
2019-05-22T02:56:05.291Z,-73
2019-05-22T02:57:05.194Z,-73
2019-05-22T02:58:05.300Z,-73
2019-05-22T02:59:05.172Z,-73
2019-05-22T03:00:05.323Z,-73
2019-05-22T03:01:05.176Z,-73
2019-05-22T03:02:05.322Z,-73
2019-05-22T03:03:05.178Z,-75
2019-05-22T03:04:05.305Z,-76
2019-05-22T03:05:05.177Z,-75
2019-05-22T03:06:05.300Z,-75
2019-05-22T03:07:05.206Z,-75
2019-05-22T03:08:05.308Z,-75
2019-05-22T03:09:05.182Z,-75
2019-05-22T03:10:05.343Z,-75
2019-05-22T03:11:05.181Z,-76
2019-05-22T03:12:05.341Z,-75
2019-05-22T03:13:05.187Z,-75
2019-05-22T03:14:05.336Z,-75
2019-05-22T03:15:05.187Z,-76
2019-05-22T03:16:05.317Z,-74
2019-05-22T03:17:05.213Z,-75
2019-05-22T03:18:05.339Z,-75
2019-05-22T03:19:08.592Z,-74
2019-05-22T03:20:05.337Z,-75
2019-05-22T03:21:05.193Z,-76
2019-05-22T03:22:05.342Z,-76
2019-05-22T03:23:05.194Z,-76
2019-05-22T03:24:05.325Z,-76
2019-05-22T03:25:05.193Z,-76
2019-05-22T03:26:05.323Z,-77
2019-05-22T03:27:05.220Z,-77
2019-05-22T03:28:05.436Z,-77
2019-05-22T03:29:05.200Z,-77
2019-05-22T03:30:05.419Z,-77
2019-05-22T03:31:05.245Z,-77
2019-05-22T03:32:05.392Z,-77
2019-05-22T03:33:05.224Z,-76
2019-05-22T03:34:05.379Z,-76
2019-05-22T03:35:05.209Z,-77
2019-05-22T03:36:05.332Z,-76
2019-05-22T03:37:05.205Z,-75
2019-05-22T03:38:05.362Z,-74
2019-05-22T03:39:05.207Z,-74
2019-05-22T03:40:05.344Z,-74
2019-05-22T03:41:05.208Z,-74
2019-05-22T03:42:05.350Z,-74
2019-05-22T03:43:05.270Z,-74
2019-05-22T03:44:05.345Z,-74
2019-05-22T03:45:05.222Z,-74
2019-05-22T03:46:05.365Z,-74
2019-05-22T03:47:05.215Z,-74
2019-05-22T03:48:05.397Z,-74
2019-05-22T03:49:05.223Z,-74
2019-05-22T03:50:05.346Z,-74
2019-05-22T03:51:05.219Z,-74
2019-05-22T03:52:05.353Z,-74
2019-05-22T03:53:05.247Z,-74
2019-05-22T03:54:05.349Z,-74
2019-05-22T03:55:05.227Z,-74
2019-05-22T03:56:05.387Z,-75
2019-05-22T03:57:05.231Z,-74
2019-05-22T03:58:05.385Z,-75
2019-05-22T03:59:05.226Z,-76
2019-05-22T04:00:05.360Z,-76
2019-05-22T04:01:05.232Z,-78
2019-05-22T04:02:05.387Z,-78
2019-05-22T04:03:05.253Z,-78
2019-05-22T04:04:05.359Z,-78
2019-05-22T04:05:05.229Z,-78
2019-05-22T04:06:05.379Z,-76
2019-05-22T04:07:05.241Z,-77
2019-05-22T04:08:05.388Z,-77
2019-05-22T04:09:05.240Z,-77
2019-05-22T04:10:05.363Z,-77
2019-05-22T04:11:05.248Z,-77
2019-05-22T04:12:05.381Z,-77
2019-05-22T04:13:05.263Z,-77
2019-05-22T04:14:05.365Z,-77
2019-05-22T04:15:05.240Z,-78
2019-05-22T04:16:05.376Z,-76
2019-05-22T04:17:05.240Z,-76
2019-05-22T04:18:05.412Z,-75
2019-05-22T04:19:05.246Z,-76
2019-05-22T04:20:05.397Z,-75
2019-05-22T04:21:05.244Z,-75
2019-05-22T04:22:05.374Z,-75
2019-05-22T04:23:05.298Z,-75
2019-05-22T04:24:05.379Z,-75
2019-05-22T04:25:05.254Z,-75
2019-05-22T04:26:05.391Z,-75
2019-05-22T04:27:05.256Z,-76
2019-05-22T04:28:05.389Z,-76
2019-05-22T04:29:05.279Z,-76
2019-05-22T04:30:05.388Z,-76
2019-05-22T04:31:05.262Z,-75
2019-05-22T04:32:05.378Z,-74
2019-05-22T04:33:05.255Z,-74
2019-05-22T04:34:05.418Z,-75
2019-05-22T04:35:05.256Z,-72
2019-05-22T04:36:09.411Z,-73
2019-05-22T04:37:05.283Z,-72
2019-05-22T04:38:05.392Z,-72
2019-05-22T04:39:05.285Z,-72
2019-05-22T04:40:05.385Z,-72
2019-05-22T04:41:05.310Z,-72
2019-05-22T04:42:05.398Z,-73
2019-05-22T04:43:05.269Z,-73
2019-05-22T04:44:05.424Z,-72
2019-05-22T04:45:05.267Z,-73
2019-05-22T04:46:05.432Z,-73
2019-05-22T04:47:05.269Z,-73
2019-05-22T04:48:05.406Z,-73
2019-05-22T04:49:05.294Z,-72
2019-05-22T04:50:08.332Z,-73
2019-05-22T04:51:05.274Z,-73
2019-05-22T04:52:05.407Z,-73
2019-05-22T04:53:05.282Z,-73
2019-05-22T04:54:05.664Z,-73
2019-05-22T04:55:05.281Z,-72
2019-05-22T04:56:05.427Z,-73
2019-05-22T04:57:05.279Z,-73
2019-05-22T04:58:05.430Z,-72
2019-05-22T04:59:05.307Z,-72
2019-05-22T05:00:05.412Z,-72
2019-05-22T05:01:05.330Z,-73
2019-05-22T05:02:05.419Z,-72
2019-05-22T05:03:05.291Z,-73
2019-05-22T05:04:05.433Z,-72
2019-05-22T05:05:05.284Z,-72
2019-05-22T05:06:07.336Z,-72
2019-05-22T05:07:05.286Z,-72
2019-05-22T05:08:05.424Z,-72
2019-05-22T05:09:05.311Z,-73
2019-05-22T05:10:05.418Z,-72
2019-05-22T05:11:05.327Z,-72
2019-05-22T05:12:05.418Z,-73
2019-05-22T05:13:06.310Z,-73
2019-05-22T05:14:05.446Z,-72
2019-05-22T05:15:05.294Z,-72
2019-05-22T05:16:05.417Z,-72
2019-05-22T05:17:05.294Z,-72
2019-05-22T05:18:05.436Z,-72
2019-05-22T05:19:05.299Z,-72
2019-05-22T05:20:05.449Z,-73
2019-05-22T05:21:05.305Z,-72
2019-05-22T05:22:05.449Z,-72
2019-05-22T05:23:05.303Z,-72
2019-05-22T05:24:05.426Z,-73
2019-05-22T05:25:05.327Z,-73
2019-05-22T05:26:05.455Z,-73
2019-05-22T05:27:05.305Z,-73
2019-05-22T05:28:05.436Z,-72
2019-05-22T05:29:05.325Z,-72
2019-05-22T05:30:05.458Z,-72
2019-05-22T05:31:05.310Z,-72
2019-05-22T05:32:05.439Z,-72
2019-05-22T05:33:05.318Z,-72
2019-05-22T05:34:05.443Z,-71
2019-05-22T05:35:05.338Z,-72
2019-05-22T05:36:05.449Z,-72
2019-05-22T05:37:05.315Z,-72
2019-05-22T05:38:05.549Z,-72
2019-05-22T05:39:05.392Z,-72
2019-05-22T05:40:05.487Z,-72
2019-05-22T05:41:05.321Z,-72
2019-05-22T05:42:05.446Z,-72
2019-05-22T05:43:05.320Z,-73
2019-05-22T05:44:05.451Z,-73
2019-05-22T05:45:05.353Z,-73
2019-05-22T05:46:05.464Z,-73
2019-05-22T05:47:05.326Z,-73
2019-05-22T05:48:05.455Z,-72
2019-05-22T05:49:05.328Z,-73
2019-05-22T05:50:05.482Z,-73
2019-05-22T05:51:05.328Z,-72
2019-05-22T05:52:05.452Z,-72
2019-05-22T05:53:05.333Z,-72
2019-05-22T05:54:05.463Z,-72
2019-05-22T05:55:05.355Z,-73
2019-05-22T05:56:05.460Z,-72
2019-05-22T05:57:05.335Z,-73
2019-05-22T05:58:05.464Z,-72
2019-05-22T05:59:05.337Z,-72
2019-05-22T06:00:05.504Z,-72
2019-05-22T06:01:05.341Z,-72
2019-05-22T06:02:05.462Z,-72
2019-05-22T06:03:05.338Z,-72
2019-05-22T06:04:05.463Z,-73
2019-05-22T06:05:05.362Z,-72
2019-05-22T06:06:05.472Z,-73
2019-05-22T06:07:05.367Z,-72
2019-05-22T06:08:05.466Z,-72
2019-05-22T06:09:05.344Z,-72
2019-05-22T06:10:05.506Z,-73
2019-05-22T06:11:05.349Z,-73
2019-05-22T06:12:06.287Z,-72
2019-05-22T06:13:05.358Z,-73
2019-05-22T06:14:05.479Z,-72
2019-05-22T06:15:05.352Z,-72
2019-05-22T06:16:05.500Z,-72
2019-05-22T06:17:05.357Z,-73
2019-05-22T06:18:05.489Z,-72
2019-05-22T06:19:05.352Z,-71
2019-05-22T06:20:05.484Z,-74
2019-05-22T06:21:05.382Z,-73
2019-05-22T06:22:05.498Z,-74
2019-05-22T06:23:05.359Z,-77
2019-05-22T06:24:05.485Z,-73
2019-05-22T06:25:05.512Z,-73
2019-05-22T06:26:05.515Z,-73
2019-05-22T06:27:05.363Z,-73
2019-05-22T06:28:05.494Z,-73
2019-05-22T06:29:05.364Z,-73
2019-05-22T06:30:05.496Z,-73
2019-05-22T06:31:05.385Z,-73
2019-05-22T06:32:05.500Z,-73
2019-05-22T06:33:05.365Z,-73
2019-05-22T06:34:05.495Z,-72
2019-05-22T06:35:05.378Z,-73
2019-05-22T06:36:05.522Z,-73
2019-05-22T06:37:05.368Z,-73
2019-05-22T06:38:05.507Z,-73
2019-05-22T06:39:05.371Z,-73
2019-05-22T06:40:05.496Z,-73
2019-05-22T06:41:05.458Z,-73
2019-05-22T06:42:05.525Z,-73
2019-05-22T06:43:05.375Z,-73
2019-05-22T06:44:05.509Z,-73
2019-05-22T06:45:05.635Z,-73
2019-05-22T06:46:05.539Z,-72
2019-05-22T06:47:05.379Z,-73
2019-05-22T06:48:05.504Z,-73
2019-05-22T06:49:05.562Z,-73
2019-05-22T06:50:05.505Z,-73
2019-05-22T06:51:18.468Z,-73
2019-05-22T06:52:05.515Z,-73
2019-05-22T06:53:09.627Z,-73
2019-05-22T06:54:05.515Z,-73
2019-05-22T06:55:05.392Z,-73
2019-05-22T06:56:05.543Z,-73
2019-05-22T06:57:05.385Z,-73
2019-05-22T06:58:05.530Z,-73
2019-05-22T06:59:05.406Z,-73
2019-05-22T07:00:15.622Z,-73
2019-05-22T07:01:05.414Z,-73
2019-05-22T07:02:05.575Z,-73
2019-05-22T07:03:05.392Z,-73
2019-05-22T07:04:05.520Z,-73
2019-05-22T07:05:05.393Z,-73
2019-05-22T07:06:05.560Z,-73
2019-05-22T07:07:05.418Z,-73
2019-05-22T07:08:05.527Z,-73
2019-05-22T07:09:05.399Z,-73
2019-05-22T07:10:05.569Z,-73
2019-05-22T07:11:05.441Z,-73
2019-05-22T07:12:05.537Z,-73
2019-05-22T07:13:05.417Z,-73
2019-05-22T07:14:05.532Z,-73
2019-05-22T07:15:05.419Z,-73
2019-05-22T07:16:05.534Z,-73
2019-05-22T07:17:05.430Z,-73
2019-05-22T07:18:05.549Z,-73
2019-05-22T07:19:05.407Z,-73
2019-05-22T07:20:05.566Z,-73
2019-05-22T07:21:05.411Z,-73
2019-05-22T07:22:05.555Z,-73
2019-05-22T07:23:05.427Z,-73
2019-05-22T07:24:05.553Z,-73
2019-05-22T07:25:05.414Z,-73
2019-05-22T07:26:05.558Z,-73
2019-05-22T07:27:05.438Z,-73
2019-05-22T07:28:05.545Z,-73
2019-05-22T07:29:05.419Z,-73
2019-05-22T07:30:05.830Z,-73
2019-05-22T07:31:05.415Z,-73
2019-05-22T07:32:05.570Z,-73
2019-05-22T07:33:05.423Z,-73
2019-05-22T07:34:05.556Z,-73
2019-05-22T07:35:05.423Z,-73
2019-05-22T07:36:13.766Z,-73
2019-05-22T07:37:05.466Z,-73
2019-05-22T07:38:05.552Z,-72
2019-05-22T07:39:05.428Z,-73
2019-05-22T07:40:05.570Z,-73
2019-05-22T07:41:05.427Z,-73
2019-05-22T07:42:05.601Z,-73
2019-05-22T07:43:05.449Z,-73
2019-05-22T07:44:05.586Z,-73
2019-05-22T07:45:05.439Z,-73
2019-05-22T07:46:05.575Z,-73
2019-05-22T07:47:05.435Z,-73
2019-05-22T07:48:05.618Z,-73
2019-05-22T07:49:05.436Z,-73
2019-05-22T07:50:06.394Z,-73
2019-05-22T07:51:05.455Z,-73
2019-05-22T07:52:05.569Z,-72
2019-05-22T07:53:05.463Z,-73
2019-05-22T07:54:05.565Z,-73
2019-05-22T07:55:05.441Z,-73
2019-05-22T07:56:05.830Z,-73
2019-05-22T07:57:05.442Z,-73
2019-05-22T07:58:05.606Z,-73
2019-05-22T07:59:05.443Z,-73
2019-05-22T08:00:05.571Z,-73
2019-05-22T08:01:05.456Z,-73
2019-05-22T08:02:05.586Z,-73
2019-05-22T08:03:05.472Z,-73
2019-05-22T08:04:05.572Z,-73
2019-05-22T08:05:05.449Z,-73
2019-05-22T08:06:05.594Z,-73
2019-05-22T08:07:05.522Z,-73
2019-05-22T08:08:05.645Z,-73
2019-05-22T08:09:05.455Z,-73
2019-05-22T08:10:06.242Z,-72
2019-05-22T08:11:05.492Z,-72
2019-05-22T08:12:05.579Z,-72
2019-05-22T08:13:05.480Z,-73
2019-05-22T08:14:05.587Z,-72
2019-05-22T08:15:05.463Z,-72
2019-05-22T08:16:05.595Z,-72
2019-05-22T08:17:05.461Z,-73
2019-05-22T08:18:05.626Z,-73
2019-05-22T08:19:05.461Z,-73
2019-05-22T08:20:05.589Z,-73
2019-05-22T08:21:05.510Z,-73
2019-05-22T08:22:08.200Z,-73
2019-05-22T08:23:05.488Z,-73
2019-05-22T08:24:05.593Z,-73
2019-05-22T08:25:05.468Z,-73
2019-05-22T08:26:05.607Z,-73
2019-05-22T08:27:05.469Z,-73
2019-05-22T08:28:05.625Z,-73
2019-05-22T08:29:05.472Z,-73
2019-05-22T08:30:05.617Z,-73
2019-05-22T08:31:05.481Z,-73
2019-05-22T08:32:05.601Z,-73
2019-05-22T08:33:05.476Z,-73
2019-05-22T08:34:05.634Z,-73
2019-05-22T08:35:05.479Z,-73
2019-05-22T08:36:05.614Z,-73
2019-05-22T08:37:05.477Z,-73
2019-05-22T08:38:05.619Z,-73
2019-05-22T08:39:05.504Z,-73
2019-05-22T08:40:05.612Z,-73
2019-05-22T08:41:05.485Z,-73
2019-05-22T08:42:05.623Z,-73
2019-05-22T08:43:05.553Z,-73
2019-05-22T08:44:17.818Z,-72
2019-05-22T08:45:05.488Z,-72
2019-05-22T08:46:05.759Z,-72
2019-05-22T08:47:05.491Z,-72
2019-05-22T08:48:05.617Z,-72
2019-05-22T08:49:05.520Z,-72
2019-05-22T08:50:05.622Z,-72
2019-05-22T08:51:05.492Z,-72
2019-05-22T08:52:05.618Z,-73
2019-05-22T08:53:05.494Z,-73
2019-05-22T08:54:06.387Z,-73
2019-05-22T08:55:05.494Z,-73
2019-05-22T08:56:05.642Z,-73
2019-05-22T08:57:05.500Z,-73
2019-05-22T08:58:05.709Z,-73
2019-05-22T08:59:18.691Z,-73
2019-05-22T09:00:05.635Z,-73
2019-05-22T09:01:05.501Z,-73
2019-05-22T09:02:05.641Z,-73
2019-05-22T09:03:05.502Z,-73
2019-05-22T09:04:05.669Z,-73
2019-05-22T09:05:05.506Z,-73
2019-05-22T09:06:05.750Z,-73
2019-05-22T09:07:05.510Z,-73
2019-05-22T09:08:05.659Z,-73
2019-05-22T09:09:05.533Z,-72
2019-05-22T09:10:05.647Z,-73
2019-05-22T09:11:05.514Z,-73
2019-05-22T09:12:05.844Z,-73
2019-05-22T09:13:05.546Z,-73
2019-05-22T09:14:05.680Z,-73
2019-05-22T09:15:05.514Z,-73
2019-05-22T09:16:05.642Z,-73
2019-05-22T09:17:05.521Z,-73
2019-05-22T09:18:05.769Z,-73
2019-05-22T09:19:05.542Z,-73
2019-05-22T09:20:05.712Z,-73
2019-05-22T09:21:05.540Z,-73
2019-05-22T09:22:05.645Z,-73
2019-05-22T09:23:05.520Z,-73
2019-05-22T09:24:05.678Z,-73
2019-05-22T09:25:05.542Z,-73
2019-05-22T09:26:05.658Z,-73
2019-05-22T09:27:05.525Z,-73
2019-05-22T09:28:05.656Z,-73
2019-05-22T09:29:05.570Z,-73
2019-05-22T09:30:05.655Z,-73
2019-05-22T09:31:05.744Z,-73
2019-05-22T09:32:05.911Z,-73
2019-05-22T09:33:05.530Z,-73
2019-05-22T09:34:05.688Z,-73
2019-05-22T09:35:05.573Z,-73
2019-05-22T09:36:06.131Z,-73
2019-05-22T09:37:05.534Z,-73
2019-05-22T09:38:05.663Z,-73
2019-05-22T09:39:05.534Z,-73
2019-05-22T09:40:05.687Z,-73
2019-05-22T09:41:05.535Z,-73
2019-05-22T09:42:05.705Z,-73
2019-05-22T09:43:05.560Z,-73
2019-05-22T09:44:05.678Z,-73
2019-05-22T09:45:05.568Z,-73
2019-05-22T09:46:05.885Z,-73
2019-05-22T09:47:05.543Z,-73
2019-05-22T09:48:05.668Z,-73
2019-05-22T09:49:05.546Z,-72
2019-05-22T09:50:05.694Z,-73
2019-05-22T09:51:05.544Z,-73
2019-05-22T09:52:05.677Z,-73
2019-05-22T09:53:05.548Z,-73
2019-05-22T09:54:05.681Z,-73
2019-05-22T09:55:05.572Z,-73
2019-05-22T09:56:05.678Z,-73
2019-05-22T09:57:05.554Z,-73
2019-05-22T09:58:05.739Z,-73
2019-05-22T09:59:05.557Z,-73
2019-05-22T10:00:05.716Z,-73
2019-05-22T10:01:05.559Z,-74
2019-05-22T10:02:05.686Z,-72
2019-05-22T10:03:05.554Z,-73
2019-05-22T10:04:05.684Z,-72
2019-05-22T10:05:05.590Z,-73
2019-05-22T10:06:06.028Z,-72
2019-05-22T10:07:05.558Z,-73
2019-05-22T10:08:05.700Z,-73
2019-05-22T10:09:05.564Z,-73
2019-05-22T10:10:05.730Z,-73
2019-05-22T10:11:05.565Z,-73
2019-05-22T10:12:05.745Z,-73
2019-05-22T10:13:05.586Z,-72
2019-05-22T10:14:05.699Z,-73
2019-05-22T10:15:05.892Z,-73
2019-05-22T10:16:05.693Z,-73
2019-05-22T10:17:05.568Z,-73
2019-05-22T10:18:05.701Z,-72
2019-05-22T10:19:05.575Z,-72
2019-05-22T10:20:05.729Z,-73
2019-05-22T10:21:05.579Z,-73
2019-05-22T10:22:05.701Z,-73
2019-05-22T10:23:15.240Z,-73
2019-05-22T10:24:05.714Z,-73
2019-05-22T10:25:15.339Z,-73
2019-05-22T10:26:05.702Z,-73
2019-05-22T10:27:05.599Z,-73
2019-05-22T10:28:05.710Z,-73
2019-05-22T10:29:05.581Z,-73
2019-05-22T10:30:05.758Z,-73
2019-05-22T10:31:06.217Z,-73
2019-05-22T10:32:05.706Z,-73
2019-05-22T10:33:05.586Z,-73
2019-05-22T10:34:05.726Z,-73
2019-05-22T10:35:05.584Z,-73
2019-05-22T10:36:05.750Z,-73
2019-05-22T10:37:05.588Z,-73
2019-05-22T10:38:05.720Z,-73
2019-05-22T10:39:05.712Z,-73
2019-05-22T10:40:05.717Z,-72
2019-05-22T10:41:05.619Z,-73
2019-05-22T10:42:05.720Z,-73
2019-05-22T10:43:05.683Z,-73
2019-05-22T10:44:05.725Z,-73
2019-05-22T10:45:05.595Z,-73
2019-05-22T10:46:05.805Z,-73
2019-05-22T10:47:05.595Z,-73
2019-05-22T10:48:05.879Z,-73
2019-05-22T10:49:05.609Z,-73
2019-05-22T10:50:05.734Z,-73
2019-05-22T10:51:05.627Z,-73
2019-05-22T10:52:05.757Z,-72
2019-05-22T10:53:05.603Z,-73
2019-05-22T10:54:05.727Z,-73
2019-05-22T10:55:05.602Z,-73
2019-05-22T10:56:05.773Z,-73
2019-05-22T10:57:05.609Z,-73
2019-05-22T10:58:05.790Z,-73
2019-05-22T10:59:05.608Z,-73
2019-05-22T11:00:05.765Z,-73
2019-05-22T11:01:05.633Z,-73
2019-05-22T11:02:05.749Z,-73
2019-05-22T11:03:05.613Z,-73
2019-05-22T11:04:05.752Z,-73
2019-05-22T11:05:05.626Z,-73
2019-05-22T11:06:08.472Z,-73
2019-05-22T11:07:05.613Z,-73
2019-05-22T11:08:05.746Z,-73
2019-05-22T11:09:05.622Z,-73
2019-05-22T11:10:05.747Z,-73
2019-05-22T11:11:05.643Z,-73
2019-05-22T11:12:05.778Z,-73
2019-05-22T11:13:05.639Z,-73
2019-05-22T11:14:09.752Z,-73
2019-05-22T11:15:05.626Z,-73
2019-05-22T11:16:05.830Z,-73
2019-05-22T11:17:05.625Z,-73
2019-05-22T11:18:05.754Z,-73
2019-05-22T11:19:05.641Z,-73
2019-05-22T11:20:05.839Z,-73
2019-05-22T11:21:05.655Z,-73
2019-05-22T11:22:05.789Z,-72
2019-05-22T11:23:05.633Z,-73
2019-05-22T11:24:05.781Z,-73
2019-05-22T11:25:05.630Z,-73
2019-05-22T11:26:05.817Z,-72
2019-05-22T11:27:05.653Z,-73
2019-05-22T11:28:05.762Z,-73
2019-05-22T11:29:05.639Z,-73
2019-05-22T11:30:05.766Z,-73
2019-05-22T11:31:05.668Z,-73
2019-05-22T11:32:05.765Z,-73
2019-05-22T11:33:05.640Z,-73
2019-05-22T11:34:05.782Z,-73
2019-05-22T11:35:05.654Z,-72
2019-05-22T11:36:05.796Z,-73
2019-05-22T11:37:05.644Z,-73
2019-05-22T11:38:05.833Z,-73
2019-05-22T11:39:05.646Z,-74
2019-05-22T11:40:05.812Z,-73
2019-05-22T11:41:05.670Z,-73
2019-05-22T11:42:05.806Z,-73
2019-05-22T11:43:05.649Z,-73
2019-05-22T11:44:05.772Z,-73
2019-05-22T11:45:05.652Z,-73
2019-05-22T11:46:05.821Z,-73
2019-05-22T11:47:05.680Z,-73
2019-05-22T11:48:05.807Z,-73
2019-05-22T11:49:05.652Z,-73
2019-05-22T11:50:05.785Z,-73
2019-05-22T11:51:05.692Z,-73
2019-05-22T11:52:05.791Z,-73
2019-05-22T11:53:05.659Z,-73
2019-05-22T11:54:10.068Z,-73
2019-05-22T11:55:05.657Z,-73
2019-05-22T11:56:05.816Z,-72
2019-05-22T11:57:05.871Z,-73
2019-05-22T11:58:05.794Z,-73
2019-05-22T11:59:05.665Z,-73
2019-05-22T12:00:09.528Z,-73
2019-05-22T12:01:05.690Z,-73
2019-05-22T12:02:05.796Z,-73
2019-05-22T12:03:05.668Z,-73
2019-05-22T12:04:05.801Z,-73
2019-05-22T12:05:05.670Z,-73
2019-05-22T12:06:05.819Z,-73
2019-05-22T12:07:05.672Z,-73
2019-05-22T12:08:05.824Z,-73
2019-05-22T12:09:05.674Z,-73
2019-05-22T12:10:05.805Z,-73
2019-05-22T12:11:05.774Z,-73
2019-05-22T12:12:05.805Z,-73
2019-05-22T12:13:05.678Z,-73
2019-05-22T12:14:06.125Z,-73
2019-05-22T12:15:05.679Z,-73
2019-05-22T12:16:05.844Z,-73
2019-05-22T12:17:05.684Z,-73
2019-05-22T12:18:05.809Z,-73
2019-05-22T12:19:05.686Z,-73
2019-05-22T12:20:05.816Z,-73
2019-05-22T12:21:05.731Z,-73
2019-05-22T12:22:05.822Z,-73
2019-05-22T12:23:05.687Z,-73
2019-05-22T12:24:05.818Z,-74
2019-05-22T12:25:05.690Z,-73
2019-05-22T12:26:05.827Z,-73
2019-05-22T12:27:05.715Z,-73
2019-05-22T12:28:05.815Z,-73
2019-05-22T12:29:05.698Z,-73
2019-05-22T12:30:05.892Z,-73
2019-05-22T12:31:05.691Z,-73
2019-05-22T12:32:05.875Z,-74
2019-05-22T12:33:12.446Z,-73
2019-05-22T12:34:05.824Z,-73
2019-05-22T12:35:05.696Z,-73
2019-05-22T12:36:05.824Z,-74
2019-05-22T12:37:05.723Z,-74
2019-05-22T12:38:05.829Z,-73
2019-05-22T12:39:05.709Z,-73
2019-05-22T12:40:05.845Z,-73
2019-05-22T12:41:05.726Z,-73
2019-05-22T12:42:06.171Z,-73
2019-05-22T12:43:05.710Z,-73
2019-05-22T12:44:05.839Z,-73
2019-05-22T12:45:05.785Z,-72
2019-05-22T12:46:05.892Z,-73
2019-05-22T12:47:05.739Z,-73
2019-05-22T12:48:05.847Z,-73
2019-05-22T12:49:08.696Z,-74
2019-05-22T12:50:05.841Z,-72
2019-05-22T12:51:05.712Z,-72
2019-05-22T12:52:05.904Z,-73
2019-05-22T12:53:05.722Z,-73
2019-05-22T12:54:05.840Z,-73
2019-05-22T12:55:05.728Z,-73
2019-05-22T12:56:06.014Z,-73
2019-05-22T12:57:05.742Z,-73
2019-05-22T12:58:05.844Z,-73
2019-05-22T12:59:05.722Z,-73
2019-05-22T13:00:05.884Z,-73
2019-05-22T13:01:05.720Z,-73
2019-05-22T13:02:05.881Z,-73
2019-05-22T13:03:05.747Z,-73
2019-05-22T13:04:05.861Z,-72
2019-05-22T13:05:05.732Z,-72
2019-05-22T13:06:05.852Z,-73
2019-05-22T13:07:05.753Z,-73
2019-05-22T13:08:06.354Z,-73
2019-05-22T13:09:05.737Z,-73
2019-05-22T13:10:06.060Z,-73
2019-05-22T13:11:05.756Z,-73
2019-05-22T13:12:05.895Z,-73
2019-05-22T13:13:05.730Z,-73
2019-05-22T13:14:06.331Z,-72
2019-05-22T13:15:10.091Z,-73
2019-05-22T13:16:06.134Z,-72
2019-05-22T13:17:05.794Z,-73
2019-05-22T13:18:05.862Z,-73
2019-05-22T13:19:05.741Z,-73
2019-05-22T13:20:05.876Z,-73
2019-05-22T13:21:05.740Z,-73
2019-05-22T13:22:05.890Z,-73
2019-05-22T13:23:05.744Z,-73
2019-05-22T13:24:05.870Z,-73
2019-05-22T13:25:05.747Z,-73
2019-05-22T13:26:05.874Z,-73
2019-05-22T13:27:05.769Z,-73
2019-05-22T13:28:05.904Z,-73
2019-05-22T13:29:05.746Z,-73
2019-05-22T13:30:05.873Z,-72
2019-05-22T13:31:05.759Z,-71
2019-05-22T13:32:05.948Z,-73
2019-05-22T13:33:05.752Z,-73
2019-05-22T13:34:05.904Z,-73
2019-05-22T13:35:05.754Z,-73
2019-05-22T13:36:05.902Z,-73
2019-05-22T13:37:05.780Z,-73
2019-05-22T13:38:05.886Z,-73
2019-05-22T13:39:05.757Z,-73
2019-05-22T13:40:06.454Z,-73
2019-05-22T13:41:05.770Z,-73
2019-05-22T13:42:05.919Z,-73
2019-05-22T13:43:05.765Z,-74
2019-05-22T13:44:05.911Z,-74
2019-05-22T13:45:05.761Z,-73
2019-05-22T13:46:05.889Z,-73